createdAt,value
2023-02-11T00:02:08.367Z,52.70
2023-02-11T00:04:38.448Z,49.90
2023-02-11T00:07:12.430Z,52.35
2023-02-11T00:09:46.472Z,49.08
2023-02-11T00:12:24.693Z,54.28
2023-02-11T00:14:52.839Z,42.70
2023-02-11T00:17:24.020Z,63.30
2023-02-11T00:20:13.540Z,50.13
2023-02-11T00:22:43.411Z,48.55
2023-02-11T00:25:12.424Z,45.65
2023-02-11T00:27:42.305Z,43.40
2023-02-11T00:30:23.443Z,51.60
2023-02-11T00:32:51.306Z,53.30
2023-02-11T00:35:21.190Z,51.78
2023-02-11T00:37:57.142Z,44.88
2023-02-11T00:40:28.128Z,48.08
2023-02-11T00:42:56.291Z,47.72
2023-02-11T00:45:25.626Z,48.45
2023-02-11T00:47:53.735Z,57.03
2023-02-11T00:50:22.650Z,42.30
2023-02-11T00:52:50.784Z,48.20
2023-02-11T00:55:25.141Z,42.90
2023-02-11T00:58:01.298Z,46.95
2023-02-11T01:00:29.651Z,44.58
2023-02-11T01:02:57.825Z,43.08
2023-02-11T01:05:25.879Z,45.53
2023-02-11T01:07:54.045Z,47.00
2023-02-11T01:10:40.437Z,43.35
2023-02-11T01:13:09.542Z,47.22
2023-02-11T01:15:39.542Z,48.55
2023-02-11T01:18:13.421Z,47.33
2023-02-11T01:20:46.769Z,49.70
2023-02-11T01:23:16.715Z,41.20
2023-02-11T01:25:45.568Z,48.20
2023-02-11T01:28:21.159Z,47.63
2023-02-11T01:30:55.387Z,48.72
2023-02-11T01:33:27.790Z,44.97
2023-02-11T01:35:56.882Z,44.15
2023-02-11T01:38:29.891Z,42.45
2023-02-11T01:41:13.436Z,49.13
2023-02-11T01:43:44.468Z,43.83
2023-02-11T01:46:12.685Z,43.00
2023-02-11T01:48:45.730Z,43.85
2023-02-11T01:51:26.050Z,35.63
2023-02-11T01:54:13.755Z,46.78
2023-02-11T01:57:12.399Z,47.22
2023-02-11T01:59:49.444Z,47.78
2023-02-11T02:02:29.191Z,48.42
2023-02-11T02:05:04.724Z,47.83
2023-02-11T02:08:10.255Z,45.35
2023-02-11T02:10:50.441Z,47.90
2023-02-11T02:13:21.593Z,44.85
2023-02-11T02:15:59.496Z,46.85
2023-02-11T02:18:38.875Z,52.03
2023-02-11T02:21:21.857Z,47.47
2023-02-11T02:24:15.713Z,47.83
2023-02-11T02:27:02.548Z,44.53
2023-02-11T02:29:58.115Z,45.63
2023-02-11T02:32:49.109Z,46.95
2023-02-11T02:35:52.021Z,43.13
2023-02-11T02:38:33.496Z,43.20
2023-02-11T02:41:17.155Z,41.47
2023-02-11T02:43:51.624Z,44.17
2023-02-11T02:46:53.988Z,49.40
2023-02-11T02:49:40.655Z,39.60
2023-02-11T02:52:36.516Z,45.92
2023-02-11T02:55:24.112Z,40.72
2023-02-11T02:58:11.988Z,45.85
2023-02-11T03:00:49.088Z,35.33
2023-02-11T03:03:49.681Z,43.08
2023-02-11T03:06:50.143Z,46.50
2023-02-11T03:09:34.272Z,40.90
2023-02-11T03:12:19.365Z,44.10
2023-02-11T03:14:57.552Z,37.63
2023-02-11T03:17:28.692Z,34.78
2023-02-11T03:20:23.093Z,39.85
2023-02-11T03:22:58.462Z,40.67
2023-02-11T03:25:36.169Z,45.35
2023-02-11T03:28:32.335Z,36.05
2023-02-11T03:31:25.696Z,42.20
2023-02-11T03:34:00.575Z,40.33
2023-02-11T03:36:47.743Z,42.95
2023-02-11T03:45:30.906Z,33.40
2023-02-11T03:51:33.995Z,35.47
2023-02-11T03:54:20.619Z,33.83
2023-02-11T03:57:09.632Z,39.00
2023-02-11T04:00:04.512Z,33.75
2023-02-11T04:02:37.974Z,30.13
2023-02-11T04:05:17.040Z,36.30
2023-02-11T04:07:54.418Z,37.50
2023-02-11T04:10:46.086Z,35.97
2023-02-11T04:16:41.122Z,36.38
2023-02-11T04:19:29.575Z,36.40
2023-02-11T04:22:44.622Z,41.83
2023-02-11T04:27:13.340Z,35.90
2023-02-11T04:44:10.573Z,39.88
2023-02-11T06:25:16.286Z,29.83
2023-02-11T07:06:42.113Z,23.85
2023-02-11T07:51:25.898Z,29.65
2023-02-11T08:00:26.340Z,31.67
2023-02-11T08:06:27.532Z,30.25
2023-02-11T08:09:10.108Z,23.58
2023-02-11T08:12:07.484Z,29.95
2023-02-11T08:14:46.730Z,27.35
2023-02-11T08:17:25.679Z,28.40
2023-02-11T08:19:55.083Z,30.63
2023-02-11T08:22:45.391Z,24.17
2023-02-11T08:25:29.432Z,19.15
2023-02-11T08:28:03.876Z,24.00
2023-02-11T08:30:35.121Z,28.42
2023-02-11T08:33:17.587Z,22.38
2023-02-11T08:35:45.920Z,22.15
2023-02-11T08:38:22.545Z,22.70
2023-02-11T08:40:51.857Z,28.13
2023-02-11T08:43:19.965Z,22.40
2023-02-11T08:45:48.156Z,21.20
2023-02-11T08:48:31.785Z,27.50
2023-02-11T08:51:14.415Z,21.20
2023-02-11T08:53:42.406Z,30.27
2023-02-11T08:56:15.452Z,22.33
2023-02-11T08:58:44.919Z,26.42
2023-02-11T09:01:23.633Z,25.10
2023-02-11T09:04:02.357Z,23.75
2023-02-11T09:06:33.361Z,22.25
2023-02-11T09:09:12.482Z,24.52
2023-02-11T09:11:42.007Z,27.17
2023-02-11T09:14:16.204Z,22.02
2023-02-11T09:16:44.178Z,26.90
2023-02-11T09:19:31.382Z,25.55
2023-02-11T09:22:06.685Z,22.25
2023-02-11T09:24:37.496Z,22.50
2023-02-11T09:27:09.410Z,17.92
2023-02-11T09:29:37.386Z,21.50
2023-02-11T09:32:14.498Z,23.95
2023-02-11T09:34:48.652Z,25.30
2023-02-11T09:37:31.382Z,22.77
2023-02-11T09:40:12.302Z,25.30
2023-02-11T09:42:47.372Z,21.30
2023-02-11T09:45:36.262Z,23.05
2023-02-11T09:48:15.745Z,27.33
2023-02-11T09:51:00.255Z,21.65
2023-02-11T09:53:56.480Z,24.38
2023-02-11T09:56:36.685Z,23.67
2023-02-11T09:59:16.507Z,22.50
2023-02-11T10:02:06.084Z,26.98
2023-02-11T10:04:58.050Z,21.25
2023-02-11T10:07:44.667Z,27.10
2023-02-11T10:10:31.388Z,25.05
2023-02-11T10:13:21.981Z,28.20
2023-02-11T10:16:10.378Z,21.80
2023-02-11T10:19:00.668Z,26.35
2023-02-11T10:21:54.518Z,26.70
2023-02-11T10:24:30.299Z,26.13
2023-02-11T10:27:16.142Z,25.83
2023-02-11T10:29:47.686Z,21.90
2023-02-11T10:35:34.129Z,22.67
2023-02-11T10:41:17.954Z,25.35
2023-02-11T10:43:52.313Z,23.80
2023-02-11T10:46:30.866Z,24.35
2023-02-11T10:49:22.599Z,21.88
2023-02-11T10:54:33.213Z,23.70
2023-02-11T10:57:06.362Z,22.48
2023-02-11T10:59:46.664Z,21.70
2023-02-11T11:02:35.625Z,22.10
2023-02-11T11:05:06.134Z,22.48
2023-02-11T11:07:52.343Z,21.23
2023-02-11T11:10:31.304Z,24.95
2023-02-11T11:13:24.104Z,23.15
2023-02-11T11:16:14.155Z,25.45
2023-02-11T11:19:01.885Z,21.50
2023-02-11T11:21:49.666Z,30.75
2023-02-11T11:24:35.915Z,26.92
2023-02-11T11:30:22.214Z,27.50
2023-02-11T11:33:02.264Z,29.67
2023-02-11T11:35:34.188Z,26.80
2023-02-11T11:38:03.283Z,29.85
2023-02-11T11:40:42.504Z,28.65
2023-02-11T11:43:23.323Z,29.70
2023-02-11T11:46:13.515Z,30.58
2023-02-11T11:49:01.455Z,29.13
2023-02-11T11:51:42.571Z,32.63
2023-02-11T11:54:21.118Z,32.65
2023-02-11T11:57:23.356Z,29.77
2023-02-11T12:00:06.757Z,29.75
2023-02-11T12:03:02.054Z,30.15
2023-02-11T12:08:56.290Z,23.08
2023-02-11T12:11:50.253Z,28.92
2023-02-11T12:14:36.547Z,29.25
2023-02-11T12:17:12.526Z,27.20
2023-02-11T12:20:05.531Z,28.25
2023-02-11T12:26:10.214Z,25.63
2023-02-11T12:28:57.249Z,28.65
2023-02-11T12:31:55.263Z,25.58
2023-02-11T12:35:01.069Z,25.83
2023-02-11T12:37:42.626Z,25.67
2023-02-11T12:43:19.701Z,26.55
2023-02-11T12:46:13.308Z,30.90
2023-02-11T12:49:09.038Z,29.38
2023-02-11T12:52:05.034Z,23.58
2023-02-11T12:55:01.792Z,28.73
2023-02-11T12:57:42.866Z,28.30
2023-02-11T13:00:30.442Z,24.13
2023-02-11T13:06:19.072Z,24.45
2023-02-11T13:12:25.992Z,28.33
2023-02-11T13:14:55.345Z,26.08
2023-02-11T13:17:38.907Z,27.13
2023-02-11T13:20:25.716Z,27.58
2023-02-11T13:23:12.654Z,27.48
2023-02-11T13:26:00.392Z,28.13
2023-02-11T13:28:42.041Z,34.03
2023-02-11T13:33:45.661Z,24.40
2023-02-11T13:36:15.913Z,28.40
2023-02-11T13:39:26.377Z,23.80
2023-02-11T13:42:07.450Z,27.08
2023-02-11T13:44:39.081Z,28.20
2023-02-11T13:47:28.891Z,30.02
2023-02-11T13:50:13.295Z,26.77
2023-02-11T13:52:49.261Z,30.20
2023-02-11T13:55:33.859Z,25.60
2023-02-11T13:58:27.990Z,35.85
2023-02-11T14:01:04.367Z,27.65
2023-02-11T14:03:56.120Z,30.92
2023-02-11T14:09:20.176Z,32.67
2023-02-11T14:11:51.415Z,30.17
2023-02-11T14:14:25.535Z,35.53
2023-02-11T14:17:22.580Z,36.38
2023-02-11T14:20:20.892Z,34.25
2023-02-11T14:23:07.324Z,35.20
2023-02-11T14:25:42.863Z,39.72
2023-02-11T14:28:27.126Z,32.75
2023-02-11T14:31:01.358Z,35.08
2023-02-11T14:33:48.040Z,36.97
2023-02-11T14:36:48.354Z,34.25
2023-02-11T14:39:23.477Z,34.90
2023-02-11T14:41:54.006Z,38.25
2023-02-11T14:44:28.595Z,35.20
2023-02-11T14:47:04.802Z,27.83
2023-02-11T14:49:33.752Z,36.38
2023-02-11T14:52:18.292Z,34.83
2023-02-11T14:54:46.662Z,32.67
2023-02-11T14:57:40.572Z,35.72
2023-02-11T15:00:39.578Z,32.65
2023-02-11T15:03:12.320Z,35.60
2023-02-11T15:05:55.632Z,30.52
2023-02-11T15:08:52.492Z,36.97
2023-02-11T15:11:35.256Z,32.83
2023-02-11T15:14:09.329Z,39.72
2023-02-11T15:16:52.377Z,36.42
2023-02-11T15:19:26.408Z,35.25
2023-02-11T15:22:00.989Z,40.03
2023-02-11T15:24:36.819Z,33.90
2023-02-11T15:30:24.312Z,33.75
2023-02-11T15:33:08.144Z,40.50
2023-02-11T15:35:44.109Z,35.28
2023-02-11T15:38:21.028Z,38.97
2023-02-11T15:40:59.698Z,42.78
2023-02-11T15:43:52.496Z,36.10
2023-02-11T15:46:23.254Z,36.08
2023-02-11T15:49:34.254Z,33.90
2023-02-11T15:55:20.790Z,38.45
2023-02-11T16:01:23.542Z,34.80
2023-02-11T16:03:57.540Z,35.78
2023-02-11T16:06:36.270Z,31.73
2023-02-11T16:09:24.234Z,37.47
2023-02-11T16:11:54.924Z,43.55
2023-02-11T16:14:48.186Z,43.50
2023-02-11T16:17:35.690Z,38.78
2023-02-11T16:20:38.942Z,35.00
2023-02-11T16:23:23.038Z,36.03
2023-02-11T16:26:21.100Z,38.40
2023-02-11T16:28:51.540Z,38.20
2023-02-11T16:31:38.121Z,33.58
2023-02-11T16:34:14.827Z,33.05
2023-02-11T16:36:42.737Z,30.45
2023-02-11T16:39:12.208Z,33.55
2023-02-11T16:41:43.138Z,32.38
2023-02-11T16:44:13.419Z,31.88
2023-02-11T16:46:41.479Z,35.78
2023-02-11T16:49:33.299Z,37.25
2023-02-11T16:55:22.012Z,35.45
2023-02-11T16:57:52.156Z,29.15
2023-02-11T17:00:39.637Z,23.08
2023-02-11T17:03:19.673Z,34.10
2023-02-11T17:05:56.111Z,36.00
2023-02-11T17:08:27.176Z,36.45
2023-02-11T17:10:57.257Z,29.90
2023-02-11T17:13:25.040Z,33.42
2023-02-11T17:16:06.177Z,32.03
2023-02-11T17:21:53.589Z,35.88
2023-02-11T17:24:23.060Z,31.35
2023-02-11T17:27:27.876Z,28.98
2023-02-11T17:30:19.201Z,31.65
2023-02-11T17:32:52.143Z,27.88
2023-02-11T17:35:30.155Z,31.15
2023-02-11T17:38:13.154Z,27.60
2023-02-11T17:40:57.691Z,38.88
2023-02-11T17:43:26.297Z,33.13
2023-02-11T17:45:57.336Z,31.48
2023-02-11T17:48:45.706Z,25.80
2023-02-11T17:51:32.428Z,31.63
2023-02-11T17:54:14.207Z,26.17
2023-02-11T17:56:45.172Z,27.65
2023-02-11T17:59:14.597Z,23.88
2023-02-11T18:02:05.548Z,25.38
2023-02-11T18:04:54.324Z,27.08
2023-02-11T18:07:35.722Z,27.25
2023-02-11T18:12:54.538Z,26.45
2023-02-11T18:15:31.069Z,29.48
2023-02-11T18:17:59.120Z,27.45
2023-02-11T18:21:06.338Z,26.10
2023-02-11T18:24:06.016Z,26.40
2023-02-11T18:26:50.777Z,26.10
2023-02-11T18:29:23.650Z,23.00
2023-02-11T18:35:04.560Z,20.05
2023-02-11T18:37:32.304Z,24.73
2023-02-11T18:40:07.013Z,20.50
2023-02-11T18:42:48.511Z,26.60
2023-02-11T18:45:25.029Z,23.20
2023-02-11T18:47:54.961Z,24.40
2023-02-11T18:50:46.533Z,22.67
2023-02-11T18:53:26.340Z,22.75
2023-02-11T18:56:07.306Z,22.70
2023-02-11T18:58:37.216Z,24.38
2023-02-11T19:01:25.582Z,25.75
2023-02-11T19:03:55.835Z,23.30
2023-02-11T19:06:52.701Z,19.90
2023-02-11T19:09:27.855Z,20.73
2023-02-11T19:12:03.244Z,18.00
2023-02-11T19:14:32.772Z,20.23
2023-02-11T19:17:09.685Z,18.80
2023-02-11T19:20:07.213Z,22.58
2023-02-11T19:22:43.204Z,21.00
2023-02-11T19:25:23.326Z,27.90
2023-02-11T19:28:17.291Z,21.85
2023-02-11T19:31:00.485Z,22.98
2023-02-11T19:33:29.333Z,22.13
2023-02-11T19:36:00.243Z,20.42
2023-02-11T19:38:53.478Z,23.95
2023-02-11T19:41:27.361Z,23.27
2023-02-11T19:44:14.434Z,18.02
2023-02-11T19:46:42.473Z,18.90
2023-02-11T19:49:24.066Z,21.15
2023-02-11T19:54:23.532Z,21.30
2023-02-11T19:56:54.579Z,20.15
2023-02-11T19:59:35.810Z,19.73
2023-02-11T20:02:11.635Z,19.27
2023-02-11T20:04:45.976Z,21.77
2023-02-11T20:07:14.163Z,18.42
2023-02-11T20:09:44.152Z,24.00
2023-02-11T20:12:18.251Z,19.05
2023-02-11T20:14:57.359Z,25.63
2023-02-11T20:17:27.655Z,22.15
2023-02-11T20:20:22.402Z,22.15
2023-02-11T20:22:50.236Z,23.50
2023-02-11T20:25:22.344Z,28.30
2023-02-11T20:28:02.963Z,22.90
2023-02-11T20:30:47.254Z,24.67
2023-02-11T20:33:54.221Z,25.13
2023-02-11T20:36:23.601Z,23.80
2023-02-11T20:38:58.926Z,20.83
2023-02-11T20:41:41.106Z,23.95
2023-02-11T20:44:20.603Z,21.25
2023-02-11T20:46:52.457Z,22.42
2023-02-11T20:49:29.531Z,19.38
2023-02-11T20:52:23.048Z,22.25
2023-02-11T20:55:16.840Z,20.27
2023-02-11T20:57:53.628Z,23.13
2023-02-11T21:00:40.578Z,24.70
2023-02-11T21:03:11.744Z,22.73
2023-02-11T21:05:40.957Z,24.50
2023-02-11T21:08:09.883Z,22.45
2023-02-11T21:11:00.691Z,23.05
2023-02-11T21:13:29.874Z,23.97
2023-02-11T21:15:58.325Z,25.75
2023-02-11T21:18:30.515Z,26.08
2023-02-11T21:21:01.834Z,24.35
2023-02-11T21:23:43.873Z,28.27
2023-02-11T21:26:16.400Z,29.67
2023-02-11T21:28:45.610Z,26.23
2023-02-11T21:31:42.853Z,25.90
2023-02-11T21:34:27.550Z,25.85
2023-02-11T21:36:55.480Z,26.27
2023-02-11T21:39:49.131Z,26.38
2023-02-11T21:42:18.164Z,23.63
2023-02-11T21:44:51.232Z,21.13
2023-02-11T21:47:19.282Z,27.23
2023-02-11T21:49:54.476Z,23.48
2023-02-11T21:52:42.424Z,28.77
2023-02-11T21:55:18.423Z,26.23
2023-02-11T21:57:53.576Z,25.25
2023-02-11T22:00:25.115Z,24.83
2023-02-11T22:05:52.290Z,29.17
2023-02-11T22:08:55.430Z,22.48
2023-02-11T22:11:43.454Z,24.30
2023-02-11T22:14:11.580Z,24.23
2023-02-11T22:16:48.775Z,24.27
2023-02-11T22:19:29.896Z,25.30
2023-02-11T22:25:10.683Z,23.70
2023-02-11T22:27:39.440Z,26.85
2023-02-11T22:30:24.612Z,23.90
2023-02-11T22:33:38.187Z,25.73
2023-02-11T22:36:27.203Z,28.77
2023-02-11T22:38:55.733Z,28.00
2023-02-11T22:41:28.378Z,31.80
2023-02-11T22:43:57.723Z,24.90
2023-02-11T22:46:52.477Z,29.83
2023-02-11T22:49:30.275Z,25.90
2023-02-11T22:52:33.755Z,24.52
2023-02-11T22:55:05.883Z,26.35
2023-02-11T22:57:33.790Z,23.85
2023-02-11T23:00:11.587Z,24.02
2023-02-11T23:02:39.533Z,23.60
2023-02-11T23:05:25.925Z,25.73
2023-02-11T23:07:55.725Z,24.20
2023-02-11T23:10:25.797Z,29.30
2023-02-11T23:12:55.489Z,28.33
2023-02-11T23:15:40.633Z,27.98
2023-02-11T23:18:16.130Z,29.83
2023-02-11T23:20:44.827Z,25.13
2023-02-11T23:23:43.753Z,25.60
2023-02-11T23:26:15.019Z,25.15
2023-02-11T23:32:00.876Z,25.33
2023-02-11T23:34:35.824Z,30.27
2023-02-11T23:37:03.816Z,28.48
2023-02-11T23:39:31.552Z,26.25
2023-02-11T23:42:24.453Z,26.13
2023-02-11T23:44:53.115Z,26.58
2023-02-11T23:47:40.889Z,28.48
2023-02-11T23:50:38.015Z,24.95
2023-02-11T23:53:29.777Z,28.63
2023-02-11T23:56:23.641Z,32.38
2023-02-11T23:58:57.299Z,25.95
